createdAt,value
2023-02-07T00:01:31.664Z,100
2023-02-07T01:10:31.640Z,100
2023-02-07T01:11:31.637Z,100
2023-02-07T01:12:31.644Z,100
2023-02-07T01:13:31.634Z,100
2023-02-07T01:15:31.665Z,100
2023-02-07T01:16:31.640Z,100
2023-02-07T01:17:31.639Z,100
2023-02-07T01:18:31.648Z,100
2023-02-07T01:20:31.635Z,100
2023-02-07T01:21:31.666Z,100
2023-02-07T01:23:31.662Z,100
2023-02-07T01:24:31.639Z,100
2023-02-07T01:25:31.650Z,100
2023-02-07T01:27:31.640Z,100
2023-02-07T01:28:31.634Z,100
2023-02-07T01:29:31.633Z,100
2023-02-07T01:31:31.805Z,100
2023-02-07T01:32:31.654Z,100
2023-02-07T01:53:31.632Z,100
2023-02-07T02:30:31.644Z,100
2023-02-07T03:24:31.624Z,100
2023-02-07T03:34:31.601Z,100
2023-02-07T03:35:31.694Z,100
2023-02-07T04:55:31.569Z,100
2023-02-07T04:56:31.577Z,100
2023-02-07T04:57:31.579Z,100
2023-02-07T05:00:31.574Z,100
2023-02-07T05:01:31.573Z,100
2023-02-07T05:02:31.588Z,100
2023-02-07T05:03:31.606Z,100
2023-02-07T05:04:31.620Z,100
2023-02-07T05:05:31.568Z,100
2023-02-07T05:08:31.642Z,100
2023-02-07T05:09:31.576Z,100
2023-02-07T05:10:31.701Z,100
2023-02-07T05:11:31.586Z,100
2023-02-07T05:12:31.580Z,100
2023-02-07T05:13:31.565Z,100
2023-02-07T05:14:31.566Z,100
2023-02-07T05:15:31.568Z,100
2023-02-07T05:16:31.607Z,100
2023-02-07T05:18:31.579Z,100
2023-02-07T05:19:31.584Z,100
2023-02-07T05:20:31.570Z,100
2023-02-07T05:21:31.599Z,100
2023-02-07T05:22:31.584Z,100
2023-02-07T05:23:31.572Z,100
2023-02-07T05:24:31.579Z,100
2023-02-07T05:37:31.571Z,100
2023-02-07T17:33:51.705Z,60.6
2023-02-07T18:56:49.179Z,63.5
2023-02-07T19:27:37.593Z,62.3
2023-02-07T19:33:42.777Z,62.6
2023-02-07T19:34:42.600Z,62.6
2023-02-07T19:37:49.172Z,61.7
2023-02-07T19:38:42.600Z,61.8
2023-02-07T19:39:42.586Z,61.6
2023-02-07T19:46:42.601Z,61.2
2023-02-07T19:47:42.568Z,61.4
2023-02-07T19:48:41.634Z,61.3
2023-02-07T19:57:42.792Z,60.7
2023-02-07T19:58:42.568Z,60.7
2023-02-07T22:55:49.984Z,75.4
2023-02-07T22:56:49.988Z,75.9
2023-02-07T22:57:50.015Z,76
2023-02-07T23:35:39.689Z,75.9
2023-02-07T23:36:39.719Z,76
2023-02-07T23:37:39.702Z,75.8
2023-02-07T23:38:39.711Z,75.8
2023-02-07T23:39:39.684Z,75.5
2023-02-07T23:40:40.030Z,75.6
2023-02-07T23:41:39.893Z,76
2023-02-07T23:42:39.691Z,75.8
2023-02-07T23:43:39.703Z,75.5
2023-02-07T23:44:39.690Z,75.6
2023-02-07T23:46:39.828Z,76.3
2023-02-07T23:47:39.689Z,76.8
2023-02-07T23:48:39.692Z,76.6
2023-02-07T23:49:39.699Z,76.5
2023-02-07T23:50:40.017Z,76.8
2023-02-07T23:51:39.705Z,78.4
2023-02-07T23:53:39.686Z,78.9
2023-02-07T23:54:39.689Z,79.6
2023-02-07T23:55:39.696Z,79.4
2023-02-07T23:56:39.713Z,81.8
2023-02-07T23:57:39.691Z,81.9
2023-02-07T23:58:39.684Z,82.4
2023-02-07T23:59:39.725Z,82.6
